Time;durP1;ratioP1;P1;durP2;ratioP2;P2;SDS_P1;SDS_P2;PMS_P1;PMS_P2;Temp;Humidity;BMP_temperature;BMP_pressure;BME280_temperature;BME280_humidity;BME280_pressure;Samples;Min_cycle;Max_cycle;Signal;HPM_P1;HPM_P2
2021/12/21 00:01:28;;;;;;;8.10;5.27;;;;;;;2.03;100.00;-23872.47;5094836;28;20203;-76
2021/12/21 00:03:54;;;;;;;7.77;5.67;;;;;;;2.02;100.00;-23872.16;5094527;28;20539;-71
2021/12/21 00:06:19;;;;;;;8.40;5.50;;;;;;;1.69;100.00;-23862.88;5094663;28;20211;-70
2021/12/21 00:08:45;;;;;;;7.90;5.33;;;;;;;1.98;100.00;-23871.03;5092756;28;20579;-72
2021/12/21 00:11:11;;;;;;;9.23;5.63;;;;;;;1.61;100.00;-23860.75;5092905;28;20289;-74
2021/12/21 00:13:51;;;;;;;8.43;5.90;;;;;;;2.02;100.00;-23872.16;5094228;28;20180;-73
2021/12/21 00:21:39;;;;;;;9.93;6.20;;;;;;;1.90;100.00;-23868.88;5094106;28;20529;-69
2021/12/21 00:24:14;;;;;;;8.50;5.80;;;;;;;1.74;100.00;-23864.31;5094175;28;20699;-74
2021/12/21 00:26:40;;;;;;;9.67;5.50;;;;;;;1.84;100.00;-23867.03;5094895;28;20259;-76
2021/12/21 00:29:06;;;;;;;7.20;5.40;;;;;;;1.75;100.00;-23864.59;5093527;28;20299;-75
2021/12/21 00:31:34;;;;;;;7.80;5.57;;;;;;;1.58;100.00;-23859.88;5093337;28;20542;-71
2021/12/21 00:34:01;;;;;;;8.33;5.60;;;;;;;1.05;100.00;-23844.88;5094279;28;20647;-73
2021/12/21 00:36:29;;;;;;;8.43;5.70;;;;;;;1.49;100.00;-23857.31;5092762;28;20177;-75
2021/12/21 00:38:57;;;;;;;7.67;5.27;;;;;;;1.43;100.00;-23855.59;5094132;28;20507;-76
2021/12/21 00:41:25;;;;;;;6.63;4.63;;;;;;;1.63;100.00;-23861.16;5094234;28;20312;-75
2021/12/21 00:43:50;;;;;;;8.47;4.93;;;;;;;1.01;100.00;-23843.72;5094120;28;20657;-73
2021/12/21 00:46:16;;;;;;;9.53;4.97;;;;;;;1.37;100.00;-23853.88;5094002;28;20180;-74
2021/12/21 00:48:49;;;;;;;6.30;4.60;;;;;;;1.06;100.00;-23845.03;5093630;28;20760;-74
2021/12/21 00:51:16;;;;;;;7.60;5.07;;;;;;;1.44;100.00;-23855.88;5094112;28;20762;-71
2021/12/21 00:53:42;;;;;;;8.67;5.10;;;;;;;1.53;100.00;-23858.44;5093930;28;20172;-76
2021/12/21 00:56:07;;;;;;;6.37;4.30;;;;;;;1.22;100.00;-23849.59;5094391;28;20180;-80
2021/12/21 00:58:33;;;;;;;6.20;4.17;;;;;;;1.37;100.00;-23853.75;5081961;28;20218;-73
2021/12/21 01:01:04;;;;;;;7.80;4.20;;;;;;;1.73;100.00;-23864.16;5080278;28;20170;-75
2021/12/21 01:03:31;;;;;;;7.20;4.40;;;;;;;1.41;100.00;-23855.03;5073429;28;20200;-71
2021/12/21 01:06:06;;;;;;;6.20;4.30;;;;;;;1.67;99.26;-23862.47;5073231;28;20169;-75
2021/12/21 01:08:42;;;;;;;5.60;4.20;;;;;;;1.27;98.80;-23851.16;5073167;28;20203;-76
2021/12/21 01:11:20;;;;;;;5.30;3.80;;;;;;;1.81;98.89;-23866.31;5072765;28;20230;-76
2021/12/21 01:16:27;;;;;;;5.43;3.43;;;;;;;1.64;97.90;-23861.59;5073389;28;20191;-74
2021/12/21 01:19:09;;;;;;;6.77;4.03;;;;;;;1.67;99.27;-23862.31;5073543;28;20192;-75
2021/12/21 01:21:44;;;;;;;5.67;4.30;;;;;;;1.43;99.24;-23855.59;5071353;28;20169;-74
2021/12/21 01:24:31;;;;;;;4.80;3.70;;;;;;;1.70;100.00;-23863.16;5071740;28;20275;-74
2021/12/21 01:29:52;;;;;;;5.10;4.10;;;;;;;1.37;100.00;-23853.75;5073174;28;20234;-75
2021/12/21 01:37:29;;;;;;;5.83;3.57;;;;;;;1.61;98.58;-23860.59;5073220;28;20208;-75
2021/12/21 01:40:03;;;;;;;5.77;3.87;;;;;;;1.41;97.13;-23855.03;5072019;28;20187;-74
2021/12/21 01:50:54;;;;;;;5.80;3.47;;;;;;;1.38;98.26;-23854.03;5073172;28;20205;-74
2021/12/21 01:53:19;;;;;;;5.90;3.70;;;;;;;1.41;96.88;-23854.88;5080229;28;20184;-72
2021/12/21 01:55:46;;;;;;;5.20;3.60;;;;;;;1.31;96.89;-23852.31;5071833;28;20563;-79
2021/12/21 01:58:12;;;;;;;4.20;3.37;;;;;;;1.45;96.78;-23856.03;5081386;28;20191;-76
2021/12/21 02:00:39;;;;;;;5.80;3.90;;;;;;;1.84;96.86;-23867.03;5072008;28;20184;-73
2021/12/21 02:03:05;;;;;;;6.73;3.67;;;;;;;1.62;98.04;-23860.88;5081097;28;20181;-75
2021/12/21 02:05:31;;;;;;;5.83;3.80;;;;;;;2.03;95.14;-23872.59;5070076;28;20186;-72
2021/12/21 02:07:57;;;;;;;4.73;3.53;;;;;;;2.09;95.73;-23874.16;5083212;28;20255;-70
2021/12/21 02:10:23;;;;;;;4.30;3.60;;;;;;;1.86;95.26;-23867.75;5073522;28;20190;-75
2021/12/21 02:12:49;;;;;;;5.03;3.50;;;;;;;2.28;95.25;-23879.44;5079649;28;20181;-73
2021/12/21 02:15:15;;;;;;;5.13;3.53;;;;;;;2.23;94.43;-23878.16;5070267;28;20177;-75
2021/12/21 02:23:01;;;;;;;4.20;3.10;;;;;;;2.29;94.70;-23879.88;5081468;28;20177;-76
2021/12/21 02:30:44;;;;;;;5.70;3.60;;;;;;;2.01;97.96;-23871.88;5071693;28;20219;-71
2021/12/21 02:33:11;;;;;;;7.03;3.60;;;;;;;1.88;96.64;-23868.16;5063084;28;20192;-72
2021/12/21 02:35:38;;;;;;;4.40;3.50;;;;;;;2.29;96.59;-23879.88;5078179;28;20181;-75
2021/12/21 02:38:04;;;;;;;4.23;3.27;;;;;;;2.30;96.29;-23880.16;5081364;28;20181;-73
2021/12/21 02:40:29;;;;;;;4.93;4.00;;;;;;;2.25;95.75;-23878.59;5070314;28;20181;-75
2021/12/21 02:42:55;;;;;;;7.23;4.07;;;;;;;2.23;96.44;-23878.31;5080483;28;20186;-74
2021/12/21 02:45:20;;;;;;;4.80;3.60;;;;;;;1.96;96.69;-23870.59;5071622;28;20665;-73
2021/12/21 02:47:46;;;;;;;5.13;3.40;;;;;;;2.35;96.91;-23881.59;5080894;28;20224;-74
2021/12/21 02:50:11;;;;;;;6.63;3.70;;;;;;;2.49;97.79;-23885.59;5071457;28;20202;-75
2021/12/21 02:52:37;;;;;;;5.30;3.80;;;;;;;1.96;97.85;-23870.47;5076469;28;20555;-76
2021/12/21 02:55:04;;;;;;;7.23;3.77;;;;;;;2.25;97.98;-23878.75;5071094;28;20189;-74
2021/12/21 02:57:29;;;;;;;4.40;3.60;;;;;;;2.65;96.78;-23890.16;5080230;28;20192;-72
2021/12/21 02:59:55;;;;;;;5.00;3.83;;;;;;;2.42;96.24;-23883.44;5071533;28;20182;-74
2021/12/21 03:02:20;;;;;;;5.13;3.83;;;;;;;2.46;96.71;-23884.75;5080833;28;20237;-75
2021/12/21 03:04:46;;;;;;;5.77;4.23;;;;;;;2.78;95.85;-23893.72;5069890;28;20336;-76
2021/12/21 03:09:54;;;;;;;4.47;3.67;;;;;;;2.28;96.28;-23879.59;5071365;28;20186;-74
2021/12/21 03:14:46;;;;;;;5.27;3.70;;;;;;;2.86;94.40;-23896.00;5070815;28;20577;-77
2021/12/21 03:17:11;;;;;;;5.13;4.00;;;;;;;2.46;93.97;-23884.59;5080328;28;20182;-75
2021/12/21 03:19:37;;;;;;;5.07;3.83;;;;;;;2.76;93.62;-23893.16;5071970;28;20170;-73
2021/12/21 03:22:04;;;;;;;4.97;3.80;;;;;;;2.91;94.56;-23897.28;5079828;28;20185;-74
2021/12/21 03:24:30;;;;;;;5.30;4.03;;;;;;;2.85;94.77;-23895.59;5072657;28;20567;-74
2021/12/21 03:26:56;;;;;;;5.00;4.13;;;;;;;2.81;95.83;-23894.44;5081418;28;20180;-77
2021/12/21 03:29:21;;;;;;;4.70;4.00;;;;;;;2.82;97.23;-23894.72;5074272;28;20210;-74
2021/12/21 03:31:48;;;;;;;7.00;4.43;;;;;;;2.32;98.05;-23880.59;5082149;28;20532;-76
2021/12/21 03:34:13;;;;;;;6.57;4.37;;;;;;;2.67;98.34;-23890.72;5058239;28;20566;-75
2021/12/21 03:36:40;;;;;;;7.07;4.50;;;;;;;2.55;99.54;-23887.16;5082578;28;20173;-72
2021/12/21 03:39:08;;;;;;;7.97;4.50;;;;;;;1.40;99.28;-23854.59;5076270;28;20640;-74
2021/12/21 03:41:39;;;;;;;4.83;4.10;;;;;;;2.16;97.67;-23876.16;5082944;28;20181;-73
2021/12/21 03:44:04;;;;;;;6.93;3.97;;;;;;;2.56;96.79;-23887.44;5079458;28;20272;-71
2021/12/21 03:46:32;;;;;;;5.23;4.07;;;;;;;2.50;97.15;-23885.72;5083496;28;20264;-75
2021/12/21 03:49:03;;;;;;;4.33;3.60;;;;;;;2.62;95.11;-23889.16;5080473;28;20535;-72
2021/12/21 03:51:29;;;;;;;4.60;3.80;;;;;;;2.31;94.81;-23880.47;5077928;28;20213;-72
2021/12/21 03:53:55;;;;;;;7.07;4.10;;;;;;;2.43;95.00;-23883.88;5083217;28;20584;-72
2021/12/21 03:56:40;;;;;;;5.87;3.93;;;;;;;2.32;95.50;-23880.75;5077320;28;20177;-74
2021/12/21 03:59:07;;;;;;;7.90;4.40;;;;;;;2.36;96.49;-23881.75;5078383;28;20224;-70
2021/12/21 04:01:35;;;;;;;8.10;4.00;;;;;;;1.83;97.15;-23866.75;5079665;28;20174;-70
2021/12/21 04:04:01;;;;;;;6.37;4.43;;;;;;;2.04;97.67;-23872.88;5084164;28;20554;-71
2021/12/21 04:06:26;;;;;;;5.60;4.23;;;;;;;2.22;98.59;-23878.03;5078923;28;20178;-71
2021/12/21 04:08:52;;;;;;;6.70;4.67;;;;;;;2.22;99.46;-23877.88;5081873;28;20291;-70
2021/12/21 04:11:17;;;;;;;5.43;4.40;;;;;;;2.15;99.31;-23876.03;5085803;28;20181;-73
2021/12/21 04:13:43;;;;;;;5.87;4.40;;;;;;;2.06;98.38;-23873.31;5083058;28;20182;-71
2021/12/21 04:16:08;;;;;;;7.33;4.57;;;;;;;2.28;99.08;-23879.59;5085936;28;20186;-71
2021/12/21 04:18:39;;;;;;;9.67;4.60;;;;;;;1.83;99.15;-23866.75;5086456;28;20178;-69
2021/12/21 04:21:06;;;;;;;6.47;4.70;;;;;;;2.11;98.95;-23874.88;5087710;28;20154;-71
2021/12/21 04:23:32;;;;;;;5.43;4.50;;;;;;;1.81;99.02;-23866.31;5089708;28;20177;-73
2021/12/21 04:25:57;;;;;;;7.53;4.80;;;;;;;1.95;100.00;-23870.16;5090183;28;20193;-73
2021/12/21 04:28:23;;;;;;;6.70;4.30;;;;;;;1.94;100.00;-23869.88;5097373;28;20202;-75
2021/12/21 04:30:49;;;;;;;7.57;4.40;;;;;;;2.18;100.00;-23876.88;5079015;28;20213;-73
2021/12/21 04:33:14;;;;;;;7.63;4.60;;;;;;;1.63;100.00;-23861.31;5075920;28;20166;-73
2021/12/21 04:35:39;;;;;;;6.47;4.50;;;;;;;1.73;100.00;-23864.16;5072502;28;20177;-74
2021/12/21 04:38:20;;;;;;;6.40;4.90;;;;;;;2.06;100.00;-23873.31;5078398;28;20267;-76
2021/12/21 04:40:48;;;;;;;6.57;4.53;;;;;;;2.10;100.00;-23874.47;5077704;28;20193;-74
2021/12/21 04:43:14;;;;;;;6.93;4.57;;;;;;;2.11;100.00;-23874.75;5079687;28;20536;-72
2021/12/21 04:45:40;;;;;;;7.67;4.80;;;;;;;2.06;100.00;-23873.31;5073599;28;20215;-76
2021/12/21 04:48:05;;;;;;;6.30;4.90;;;;;;;1.73;99.69;-23864.16;5081984;28;20232;-74
2021/12/21 04:50:31;;;;;;;7.17;4.47;;;;;;;2.08;99.10;-23873.88;5074062;28;20185;-70
2021/12/21 04:52:57;;;;;;;8.00;4.50;;;;;;;2.09;97.99;-23874.31;5081933;28;20215;-76
2021/12/21 04:55:22;;;;;;;5.73;4.73;;;;;;;2.04;96.76;-23872.75;5073696;28;20235;-73
2021/12/21 04:57:48;;;;;;;5.43;4.07;;;;;;;2.21;96.88;-23877.75;5080001;28;20660;-74
2021/12/21 05:00:14;;;;;;;6.43;4.37;;;;;;;2.32;96.03;-23880.75;5073291;28;20181;-76
2021/12/21 05:02:40;;;;;;;6.10;4.73;;;;;;;2.45;95.39;-23884.44;5080477;28;20197;-73
2021/12/21 05:05:06;;;;;;;5.23;4.10;;;;;;;2.34;95.89;-23881.16;5076344;28;20192;-71
2021/12/21 05:07:35;;;;;;;6.83;4.07;;;;;;;2.35;96.58;-23881.47;5071957;28;20213;-74
2021/12/21 05:10:02;;;;;;;7.77;4.30;;;;;;;2.59;96.36;-23888.44;5081432;28;20570;-73
2021/12/21 05:12:28;;;;;;;5.13;3.80;;;;;;;2.30;96.51;-23880.16;5072292;28;20275;-75
2021/12/21 05:14:55;;;;;;;6.00;4.43;;;;;;;2.50;96.57;-23885.88;5079370;28;20638;-72
2021/12/21 05:17:21;;;;;;;4.90;3.70;;;;;;;2.27;96.63;-23879.31;5074274;28;20653;-72
2021/12/21 05:19:54;;;;;;;5.90;4.00;;;;;;;2.58;97.04;-23888.03;5073994;28;20186;-75
2021/12/21 05:22:20;;;;;;;6.20;4.00;;;;;;;2.13;96.82;-23875.47;5075267;28;20182;-72
2021/12/21 05:24:46;;;;;;;6.20;4.37;;;;;;;2.11;95.61;-23874.75;5077409;28;20166;-74
2021/12/21 05:27:11;;;;;;;5.50;4.00;;;;;;;2.17;96.81;-23876.47;5071910;28;20231;-82
2021/12/21 05:29:37;;;;;;;5.57;3.87;;;;;;;2.12;95.31;-23875.16;5081860;28;20185;-77
2021/12/21 05:32:03;;;;;;;4.93;3.90;;;;;;;2.64;95.48;-23889.72;5071817;28;20630;-78
2021/12/21 05:34:29;;;;;;;5.73;4.17;;;;;;;2.78;95.32;-23893.72;5080297;28;20231;-74
2021/12/21 05:36:55;;;;;;;5.40;3.93;;;;;;;2.54;96.20;-23886.88;5072423;28;20181;-75
2021/12/21 05:39:25;;;;;;;5.10;4.00;;;;;;;2.17;96.06;-23876.47;5072306;28;20174;-75
2021/12/21 05:44:20;;;;;;;6.50;3.70;;;;;;;2.60;94.26;-23888.72;5070814;28;20222;-75
2021/12/21 05:46:46;;;;;;;5.67;4.00;;;;;;;2.61;95.06;-23889.03;5068699;28;20570;-74
2021/12/21 05:49:12;;;;;;;4.70;3.43;;;;;;;2.48;94.97;-23885.31;5070348;28;20205;-75
2021/12/21 05:51:38;;;;;;;5.17;3.53;;;;;;;2.35;94.56;-23881.47;5080742;28;20203;-75
2021/12/21 05:54:04;;;;;;;4.43;3.47;;;;;;;2.53;95.04;-23886.75;5072111;28;20193;-79
2021/12/21 05:56:30;;;;;;;5.40;3.97;;;;;;;2.51;95.15;-23886.16;5077161;28;20225;-79
2021/12/21 05:58:57;;;;;;;6.23;4.03;;;;;;;2.19;94.70;-23877.03;5068782;28;20266;-74
2021/12/21 06:01:22;;;;;;;6.90;4.03;;;;;;;2.30;94.77;-23880.16;5069933;28;20244;-77
2021/12/21 06:04:41;;;;;;;5.67;3.77;;;;;;;2.76;95.12;-23893.16;5080603;28;20186;-76
2021/12/21 06:07:07;;;;;;;5.87;3.83;;;;;;;2.73;95.55;-23892.16;5075532;28;20730;-73
2021/12/21 06:09:32;;;;;;;5.13;3.70;;;;;;;2.55;95.23;-23887.31;5057600;28;20305;-73
2021/12/21 06:25:51;;;;;;;8.43;4.63;;;;;;;2.15;97.51;-23875.88;5089638;28;20704;-74
2021/12/21 06:28:17;;;;;;;6.53;4.20;;;;;;;2.33;98.48;-23880.88;5072117;28;20663;-72
2021/12/21 06:30:42;;;;;;;7.40;4.60;;;;;;;2.37;98.34;-23882.03;5089770;28;20185;-73
2021/12/21 06:33:11;;;;;;;7.00;4.47;;;;;;;2.39;97.28;-23882.59;5090304;28;20188;-75
2021/12/21 06:35:49;;;;;;;7.93;4.83;;;;;;;0.99;96.48;-23843.00;5089604;28;20235;-77
2021/12/21 06:38:14;;;;;;;6.63;4.50;;;;;;;2.17;95.84;-23876.47;5079529;28;20222;-74
2021/12/21 06:40:40;;;;;;;7.27;4.87;;;;;;;2.60;95.35;-23888.72;5071372;28;20174;-77
2021/12/21 06:43:11;;;;;;;5.90;4.30;;;;;;;2.61;94.80;-23889.03;5072105;28;20617;-72
2021/12/21 06:51:35;;;;;;;6.20;4.50;;;;;;;2.51;92.57;-23886.03;5071024;28;20173;-75
2021/12/21 06:54:01;;;;;;;7.47;4.70;;;;;;;2.86;91.11;-23895.88;5070258;28;20163;-71
2021/12/21 06:56:27;;;;;;;11.03;4.73;;;;;;;3.14;90.56;-23903.84;5071178;28;20557;-74
2021/12/21 06:58:55;;;;;;;9.33;5.10;;;;;;;3.00;90.29;-23899.88;5069452;28;20224;-74
2021/12/21 07:01:22;;;;;;;9.17;4.93;;;;;;;2.83;90.30;-23895.00;5073496;28;20204;-73
2021/12/21 07:03:48;;;;;;;7.03;4.80;;;;;;;3.20;90.17;-23905.56;5074823;28;20190;-77
2021/12/21 07:06:16;;;;;;;8.27;4.90;;;;;;;3.22;89.22;-23906.13;5073817;28;20181;-74
2021/12/21 07:08:47;;;;;;;8.07;4.97;;;;;;;3.10;89.21;-23902.72;5073465;28;20198;-73
2021/12/21 07:19:12;;;;;;;7.77;4.23;;;;;;;3.32;86.59;-23908.84;5074974;28;20184;-74
2021/12/21 07:21:38;;;;;;;5.83;3.90;;;;;;;3.18;86.21;-23905.00;5074510;28;20170;-75
2021/12/21 07:24:04;;;;;;;8.10;3.80;;;;;;;3.35;85.20;-23909.69;5074495;28;20185;-73
2021/12/21 07:26:30;;;;;;;7.90;3.80;;;;;;;3.52;85.60;-23914.69;5074358;28;20170;-72
2021/12/21 07:28:55;;;;;;;10.03;3.63;;;;;;;2.86;84.52;-23895.88;5074466;28;20204;-75
2021/12/21 07:31:21;;;;;;;5.53;3.43;;;;;;;3.33;83.84;-23909.28;5074757;28;20257;-72
2021/12/21 07:33:46;;;;;;;8.97;3.63;;;;;;;3.61;82.72;-23917.13;5074780;28;20174;-74
2021/12/21 07:36:12;;;;;;;7.07;3.50;;;;;;;3.77;82.41;-23921.53;5074414;28;20635;-75
2021/12/21 07:38:37;;;;;;;7.80;3.50;;;;;;;3.53;82.81;-23914.84;5074608;28;20174;-75
2021/12/21 07:41:03;;;;;;;6.80;3.40;;;;;;;4.02;82.83;-23928.50;5073889;28;20174;-72
2021/12/21 07:43:30;;;;;;;7.13;4.07;;;;;;;4.01;81.57;-23928.38;5073716;28;20174;-76
2021/12/21 07:45:55;;;;;;;6.97;3.40;;;;;;;3.92;81.26;-23925.81;5073275;28;20186;-77
2021/12/21 07:48:21;;;;;;;5.47;3.43;;;;;;;4.14;80.74;-23932.06;5074069;28;20210;-76
2021/12/21 07:50:48;;;;;;;4.73;3.40;;;;;;;3.88;80.96;-23924.81;5072576;28;20618;-72
2021/12/21 07:53:17;;;;;;;4.97;3.20;;;;;;;3.63;81.55;-23917.69;5074242;28;20730;-76
2021/12/21 07:55:43;;;;;;;6.10;3.70;;;;;;;3.87;82.10;-23924.53;5073020;28;20181;-75
2021/12/21 07:58:10;;;;;;;6.63;3.40;;;;;;;3.55;82.17;-23915.53;5073255;28;20166;-70
2021/12/21 08:00:36;;;;;;;8.17;3.47;;;;;;;3.79;82.90;-23922.09;5073994;28;20180;-72
2021/12/21 08:03:02;;;;;;;7.13;3.63;;;;;;;3.47;81.85;-23913.13;5074550;28;20166;-73
2021/12/21 08:05:32;;;;;;;4.10;3.30;;;;;;;3.65;81.34;-23918.25;5076426;28;20268;-72
2021/12/21 08:08:08;;;;;;;6.20;3.40;;;;;;;3.35;81.72;-23909.84;5073757;28;20202;-77
2021/12/21 08:10:43;;;;;;;13.60;3.77;;;;;;;3.38;85.99;-23910.69;5072914;28;20166;-70
2021/12/21 08:13:09;;;;;;;7.10;3.53;;;;;;;3.83;85.85;-23923.38;5073780;28;20207;-72
2021/12/21 08:15:35;;;;;;;5.83;3.83;;;;;;;4.40;86.53;-23939.34;5072145;28;20563;-72
2021/12/21 08:18:00;;;;;;;9.27;4.37;;;;;;;4.51;86.65;-23942.47;5073317;28;20158;-70
2021/12/21 08:20:27;;;;;;;6.67;4.50;;;;;;;4.28;85.07;-23936.06;5073835;28;20192;-71
2021/12/21 08:22:54;;;;;;;7.00;4.53;;;;;;;4.29;81.77;-23936.19;5073739;28;20170;-70
2021/12/21 08:25:24;;;;;;;6.17;3.70;;;;;;;4.96;75.40;-23955.00;5073277;28;20549;-79
2021/12/21 08:27:53;;;;;;;6.37;3.20;;;;;;;4.76;73.15;-23949.44;5073249;28;20194;-78
2021/12/21 08:30:18;;;;;;;6.20;3.40;;;;;;;4.59;72.02;-23944.59;5073785;28;20170;-76
2021/12/21 08:32:43;;;;;;;3.43;2.87;;;;;;;4.47;72.88;-23941.31;5073041;28;20170;-80
2021/12/21 08:35:12;;;;;;;4.57;3.00;;;;;;;4.72;71.43;-23948.31;5073554;28;20166;-74
2021/12/21 08:37:38;;;;;;;5.80;3.20;;;;;;;4.52;71.46;-23942.75;5072895;28;20216;-76
2021/12/21 08:40:04;;;;;;;4.53;3.00;;;;;;;5.03;70.90;-23956.97;5073032;28;20210;-72
2021/12/21 08:42:32;;;;;;;5.43;3.70;;;;;;;4.13;71.68;-23931.66;5072711;28;20178;-73
2021/12/21 08:44:59;;;;;;;9.63;3.50;;;;;;;4.63;71.11;-23945.75;5072525;28;20324;-73
2021/12/21 08:47:25;;;;;;;4.57;3.20;;;;;;;4.96;72.27;-23955.13;5072076;28;20186;-76
2021/12/21 08:49:50;;;;;;;4.30;3.10;;;;;;;5.00;71.33;-23956.25;5072927;28;20219;-73
2021/12/21 08:52:16;;;;;;;6.13;3.20;;;;;;;5.20;71.27;-23961.81;5072769;28;20220;-76
2021/12/21 08:54:42;;;;;;;6.20;3.27;;;;;;;4.94;69.32;-23954.56;5072103;28;20166;-76
2021/12/21 08:57:08;;;;;;;6.00;3.13;;;;;;;5.04;68.98;-23957.41;5072725;28;20197;-75
2021/12/21 08:59:33;;;;;;;5.63;2.93;;;;;;;5.29;68.93;-23964.50;5071471;28;20209;-73
2021/12/21 09:01:59;;;;;;;4.60;3.60;;;;;;;5.28;69.55;-23964.22;5073390;28;20261;-77
2021/12/21 09:04:24;;;;;;;6.37;3.80;;;;;;;4.79;70.51;-23950.28;5071480;28;20565;-77
2021/12/21 09:06:49;;;;;;;5.17;3.30;;;;;;;5.37;69.63;-23966.66;5072676;28;20177;-76
2021/12/21 09:09:15;;;;;;;9.03;3.30;;;;;;;5.29;70.51;-23964.50;5075257;28;20224;-79
2021/12/21 09:11:45;;;;;;;4.27;3.17;;;;;;;5.45;70.76;-23968.94;5076609;28;20174;-75
2021/12/21 09:14:10;;;;;;;6.47;3.17;;;;;;;5.07;69.99;-23958.25;5075977;28;20633;-76
2021/12/21 09:16:36;;;;;;;3.33;2.97;;;;;;;5.41;71.11;-23967.66;5072932;28;20257;-74
2021/12/21 09:19:02;;;;;;;5.67;2.90;;;;;;;5.49;71.77;-23969.91;5072089;28;20198;-76
2021/12/21 09:21:31;;;;;;;5.97;3.13;;;;;;;5.58;72.32;-23972.63;5073950;28;20174;-76
2021/12/21 09:23:57;;;;;;;10.07;3.30;;;;;;;5.56;71.44;-23971.91;5075177;28;20196;-74
2021/12/21 09:26:22;;;;;;;6.67;3.10;;;;;;;5.18;72.65;-23961.38;5072457;28;20209;-76
2021/12/21 09:28:47;;;;;;;4.83;3.13;;;;;;;5.74;72.64;-23977.03;5073268;28;20201;-77
2021/12/21 09:31:13;;;;;;;6.80;3.00;;;;;;;5.79;72.41;-23978.44;5071196;28;20197;-75
2021/12/21 09:33:39;;;;;;;7.13;3.13;;;;;;;5.68;71.97;-23975.47;5072784;28;20223;-79
2021/12/21 09:36:04;;;;;;;5.47;3.80;;;;;;;5.28;74.13;-23964.22;5073079;28;20202;-72
2021/12/21 09:38:30;;;;;;;7.43;3.50;;;;;;;5.12;73.47;-23959.53;5073650;28;20253;-80
2021/12/21 09:40:55;;;;;;;5.37;3.40;;;;;;;5.73;72.67;-23976.75;5071275;28;20223;-77
2021/12/21 09:43:21;;;;;;;6.03;3.00;;;;;;;5.61;71.02;-23973.34;5072222;28;20652;-75
2021/12/21 09:45:47;;;;;;;5.97;3.13;;;;;;;5.68;71.33;-23975.47;5072505;28;20680;-75
2021/12/21 09:48:12;;;;;;;8.13;3.00;;;;;;;6.04;70.03;-23985.41;5071916;28;20220;-76
2021/12/21 09:50:38;;;;;;;6.33;3.30;;;;;;;5.46;71.61;-23969.22;5070387;28;20178;-73
2021/12/21 09:53:04;;;;;;;5.70;3.53;;;;;;;5.99;71.04;-23984.13;5072113;28;20162;-74
2021/12/21 09:55:29;;;;;;;5.20;3.40;;;;;;;5.75;72.62;-23977.31;5074377;28;20185;-73
2021/12/21 09:57:56;;;;;;;6.93;3.53;;;;;;;5.73;71.51;-23976.75;5071847;28;20174;-75
2021/12/21 10:00:28;;;;;;;5.03;3.33;;;;;;;5.55;70.88;-23971.63;5071786;28;20235;-74
2021/12/21 10:03:01;;;;;;;5.10;3.10;;;;;;;5.29;71.03;-23964.38;5071916;28;20198;-73
2021/12/21 10:05:27;;;;;;;5.23;3.50;;;;;;;5.53;71.31;-23971.06;5072000;28;20209;-74
2021/12/21 10:08:01;;;;;;;4.67;3.20;;;;;;;5.32;70.14;-23965.38;5071371;28;20217;-74
2021/12/21 10:10:34;;;;;;;5.83;3.27;;;;;;;5.66;70.37;-23974.91;5072224;28;20177;-74
2021/12/21 10:13:09;;;;;;;4.00;2.80;;;;;;;5.19;70.11;-23961.66;5071334;28;20536;-73
2021/12/21 10:15:49;;;;;;;5.00;3.03;;;;;;;5.46;69.63;-23969.22;5071773;28;20180;-73
2021/12/21 10:18:27;;;;;;;4.50;2.93;;;;;;;5.60;70.03;-23973.03;5072860;28;20205;-75
2021/12/21 10:20:55;;;;;;;4.77;3.07;;;;;;;6.10;65.39;-23987.13;5072038;28;20192;-75
2021/12/21 10:23:23;;;;;;;3.63;3.07;;;;;;;6.10;65.36;-23987.13;5071831;28;20178;-75
2021/12/21 10:25:49;;;;;;;6.57;2.80;;;;;;;5.82;65.31;-23979.31;5071969;28;20205;-74
2021/12/21 10:28:39;;;;;;;4.23;2.53;;;;;;;5.71;67.07;-23976.31;5070981;28;20697;-76
2021/12/21 10:31:09;;;;;;;3.77;2.70;;;;;;;5.62;67.00;-23973.75;5079145;28;20602;-75
2021/12/21 10:33:36;;;;;;;2.63;2.40;;;;;;;5.44;64.56;-23968.50;5077685;28;20563;-74
2021/12/21 10:36:05;;;;;;;3.93;2.70;;;;;;;5.39;64.02;-23967.06;5080588;28;20546;-75
2021/12/21 10:38:42;;;;;;;4.30;2.90;;;;;;;5.62;65.75;-23973.63;5091108;28;20170;-76
2021/12/21 10:41:10;;;;;;;4.50;2.93;;;;;;;5.51;63.99;-23970.47;5092186;28;20261;-73
2021/12/21 10:43:36;;;;;;;3.03;2.60;;;;;;;5.59;65.25;-23972.91;5077567;28;20273;-74
2021/12/21 10:46:03;;;;;;;3.97;3.03;;;;;;;5.77;65.69;-23978.03;5071452;28;20247;-71
2021/12/21 10:48:29;;;;;;;3.83;3.00;;;;;;;5.40;67.63;-23967.50;5071136;28;20281;-73
2021/12/21 10:50:55;;;;;;;3.67;3.07;;;;;;;5.69;65.40;-23975.75;5071529;28;20166;-77
2021/12/21 10:53:24;;;;;;;3.23;2.90;;;;;;;6.01;65.18;-23984.56;5072728;28;20185;-72
2021/12/21 10:56:04;;;;;;;3.60;3.27;;;;;;;5.80;64.48;-23978.72;5070962;28;20209;-73
2021/12/21 10:58:30;;;;;;;4.07;2.87;;;;;;;5.96;63.22;-23983.13;5069916;28;20661;-73
2021/12/21 11:01:02;;;;;;;2.93;2.50;;;;;;;6.31;63.43;-23992.94;5071316;28;20169;-73
2021/12/21 11:03:38;;;;;;;7.03;3.20;;;;;;;6.50;61.18;-23998.34;5071049;28;20179;-73
2021/12/21 11:06:16;;;;;;;7.80;2.60;;;;;;;6.19;59.55;-23989.81;5071686;28;20178;-72
2021/12/21 11:08:48;;;;;;;9.53;2.60;;;;;;;6.14;60.59;-23988.41;5087639;28;20208;-74
2021/12/21 11:11:37;;;;;;;3.80;2.97;;;;;;;6.26;61.94;-23991.66;5091067;28;20182;-77
2021/12/21 11:14:14;;;;;;;4.03;2.70;;;;;;;6.21;59.96;-23990.38;5090796;28;20154;-75
2021/12/21 11:16:44;;;;;;;5.80;2.50;;;;;;;6.32;58.13;-23993.22;5090713;28;20165;-72
2021/12/21 11:19:11;;;;;;;6.20;2.80;;;;;;;6.13;59.13;-23988.13;5091034;28;20169;-75
2021/12/21 11:21:37;;;;;;;4.30;2.50;;;;;;;5.97;59.15;-23983.56;5091109;28;20598;-75
2021/12/21 11:24:06;;;;;;;3.30;2.57;;;;;;;5.93;57.69;-23982.28;5089217;28;20621;-74
2021/12/21 11:26:33;;;;;;;4.30;2.80;;;;;;;6.24;57.81;-23991.09;5089688;28;20552;-75
2021/12/21 11:29:12;;;;;;;3.80;2.67;;;;;;;6.23;58.93;-23990.81;5088924;28;20201;-73
2021/12/21 11:31:40;;;;;;;2.93;2.40;;;;;;;5.68;56.84;-23975.31;5090823;28;20165;-76
2021/12/21 11:34:09;;;;;;;3.77;2.63;;;;;;;5.52;58.61;-23970.78;5090654;28;20244;-73
2021/12/21 11:39:21;;;;;;;3.53;2.80;;;;;;;5.37;58.16;-23966.50;5089154;28;20541;-78
2021/12/21 11:41:47;;;;;;;9.30;3.03;;;;;;;4.77;59.42;-23949.88;5091466;28;20632;-73
2021/12/21 11:44:15;;;;;;;5.47;2.60;;;;;;;5.96;56.89;-23983.28;5090449;28;20229;-75
2021/12/21 11:46:55;;;;;;;4.27;2.70;;;;;;;6.16;57.87;-23988.97;5093106;28;20256;-72
2021/12/21 11:49:40;;;;;;;5.33;2.70;;;;;;;6.01;57.10;-23984.56;5094662;28;20215;-74
2021/12/21 11:52:17;;;;;;;4.80;2.70;;;;;;;5.93;56.45;-23982.44;5094560;28;20177;-74
2021/12/21 11:54:54;;;;;;;6.40;2.80;;;;;;;5.67;58.28;-23975.03;5093327;28;20216;-73
2021/12/21 11:57:36;;;;;;;10.83;3.30;;;;;;;5.87;59.51;-23980.72;5094161;28;20240;-72
2021/12/21 12:00:12;;;;;;;8.10;3.40;;;;;;;5.75;61.03;-23977.44;5094435;28;20264;-74
2021/12/21 12:02:38;;;;;;;4.73;3.30;;;;;;;5.46;61.71;-23969.06;5094540;28;20165;-72
2021/12/21 12:05:18;;;;;;;3.80;2.90;;;;;;;4.98;60.40;-23955.69;5094637;28;20240;-72
2021/12/21 12:07:44;;;;;;;2.97;2.47;;;;;;;5.41;61.30;-23967.78;5094541;28;20196;-73
2021/12/21 12:10:15;;;;;;;4.70;3.07;;;;;;;5.01;64.14;-23956.41;5082437;28;20181;-74
2021/12/21 12:12:41;;;;;;;3.40;3.00;;;;;;;5.29;67.47;-23964.50;5074220;28;20625;-74
2021/12/21 12:15:09;;;;;;;3.57;3.17;;;;;;;5.21;69.83;-23962.25;5074624;28;20202;-73
2021/12/21 12:17:48;;;;;;;4.63;3.17;;;;;;;5.35;71.72;-23966.09;5074215;28;20251;-76
2021/12/21 12:20:15;;;;;;;6.00;3.20;;;;;;;4.93;73.44;-23954.13;5074125;28;20178;-73
2021/12/21 12:22:44;;;;;;;5.90;3.90;;;;;;;5.32;73.28;-23965.38;5073849;28;20178;-73
2021/12/21 12:25:22;;;;;;;6.80;3.70;;;;;;;4.78;72.83;-23950.00;5073284;28;20201;-73
2021/12/21 12:27:51;;;;;;;5.53;3.63;;;;;;;4.70;73.17;-23947.88;5079820;28;20209;-76
2021/12/21 12:30:19;;;;;;;5.70;3.90;;;;;;;4.82;73.48;-23951.16;5082847;28;20235;-76
2021/12/21 12:32:52;;;;;;;5.00;3.77;;;;;;;5.18;72.74;-23961.38;5073138;28;20211;-73
2021/12/21 12:35:27;;;;;;;7.20;4.10;;;;;;;4.93;71.82;-23954.28;5072929;28;20235;-75
2021/12/21 12:38:25;;;;;;;4.30;3.50;;;;;;;5.40;69.70;-23967.50;5072505;28;20188;-75
2021/12/21 12:41:02;;;;;;;4.37;3.23;;;;;;;5.44;66.65;-23968.63;5067346;28;20641;-73
2021/12/21 12:43:32;;;;;;;5.33;2.90;;;;;;;5.06;61.10;-23957.97;5080275;28;20265;-73
2021/12/21 12:46:08;;;;;;;6.27;3.00;;;;;;;5.33;59.97;-23965.50;5071980;28;20272;-72
2021/12/21 12:48:46;;;;;;;6.07;2.87;;;;;;;5.31;61.84;-23965.09;5074439;28;20204;-71
2021/12/21 12:51:33;;;;;;;5.83;2.83;;;;;;;5.34;60.71;-23965.78;5073107;28;20162;-75